createdAt,value
2016-11-30T00:00:57.184Z,99.27
2016-11-30T00:01:57.202Z,98.71
2016-11-30T00:02:57.214Z,98.71
2016-11-30T00:03:57.256Z,98.94
2016-11-30T00:04:57.238Z,98.57
2016-11-30T00:05:57.256Z,99.22
2016-11-30T00:06:57.268Z,99.13
2016-11-30T00:07:57.278Z,99.08
2016-11-30T00:08:57.295Z,99.22
2016-11-30T00:09:57.307Z,99.32
2016-11-30T00:10:57.317Z,99.32
2016-11-30T00:11:57.331Z,99.13
2016-11-30T00:12:57.342Z,99.13
2016-11-30T00:14:12.279Z,99.22
2016-11-30T00:14:57.373Z,99.27
2016-11-30T00:15:57.388Z,98.66
2016-11-30T00:16:57.400Z,98.99
2016-11-30T00:17:57.413Z,98.94
2016-11-30T00:18:57.424Z,98.99
2016-11-30T00:19:57.436Z,98.47
2016-11-30T00:20:57.449Z,99.04
2016-11-30T00:21:57.463Z,98.66
2016-11-30T00:22:57.478Z,99.18
2016-11-30T00:23:57.493Z,98.8
2016-11-30T00:24:57.504Z,98.8
2016-11-30T00:25:57.517Z,98.71
2016-11-30T00:26:57.529Z,98.9
2016-11-30T00:27:57.545Z,98.52
2016-11-30T00:30:12.489Z,98.9
2016-11-30T00:31:57.592Z,98.52
2016-11-30T00:32:57.607Z,98.33
2016-11-30T00:33:57.620Z,97.96
2016-11-30T00:34:57.635Z,97.86
2016-11-30T00:35:57.644Z,97.2
2016-11-30T00:36:57.662Z,97.48
2016-11-30T00:37:57.672Z,97.1
2016-11-30T00:38:57.683Z,97.2
2016-11-30T00:39:57.700Z,96.91
2016-11-30T00:40:57.715Z,96.25
2016-11-30T00:41:57.725Z,96.44
2016-11-30T00:42:57.737Z,96.54
2016-11-30T00:43:57.754Z,96.06
2016-11-30T00:44:57.765Z,96.25
2016-11-30T00:46:12.701Z,95.97
2016-11-30T00:47:57.808Z,95.59
2016-11-30T00:48:58.021Z,95.5
2016-11-30T00:49:57.828Z,95.21
2016-11-30T00:50:57.841Z,95.21
2016-11-30T00:51:57.862Z,95.59
2016-11-30T00:52:57.870Z,95.78
2016-11-30T00:53:57.882Z,95.21
2016-11-30T00:54:57.894Z,95.59
2016-11-30T00:55:57.911Z,95.12
2016-11-30T00:56:57.925Z,94.56
2016-11-30T00:57:57.937Z,94.56
2016-11-30T00:58:57.951Z,94.65
2016-11-30T01:01:12.898Z,94.27
2016-11-30T01:02:58.003Z,93.89
2016-11-30T01:04:58.030Z,93.7
2016-11-30T01:05:58.038Z,94.08
2016-11-30T01:06:58.055Z,93.8
2016-11-30T01:07:58.069Z,93.61
2016-11-30T01:08:58.079Z,93.8
2016-11-30T01:09:58.092Z,94.27
2016-11-30T01:10:58.107Z,94.27
2016-11-30T01:11:58.120Z,94.08
2016-11-30T01:12:58.132Z,94.18
2016-11-30T01:13:58.146Z,94.08
2016-11-30T01:14:58.157Z,94.18
2016-11-30T01:15:58.167Z,94.08
2016-11-30T01:16:58.189Z,94.08
2016-11-30T01:17:58.199Z,93.94
2016-11-30T01:18:58.215Z,94.32
2016-11-30T01:19:58.220Z,94.51
2016-11-30T01:20:58.235Z,94.6
2016-11-30T01:21:58.250Z,94.32
2016-11-30T01:22:58.268Z,94.03
2016-11-30T01:23:58.279Z,93.94
2016-11-30T01:24:58.293Z,93.94
2016-11-30T01:25:58.304Z,94.13
2016-11-30T01:26:58.316Z,93.94
2016-11-30T01:27:58.326Z,93.94
2016-11-30T01:28:58.643Z,94.51
2016-11-30T01:30:58.672Z,94.03
2016-11-30T01:31:58.379Z,94.03
2016-11-30T01:33:13.316Z,93.75
2016-11-30T01:33:58.407Z,93.56
2016-11-30T01:34:58.420Z,93.37
2016-11-30T01:35:58.431Z,93.37
2016-11-30T01:36:58.447Z,93.47
2016-11-30T01:37:58.459Z,93.84
2016-11-30T01:38:58.476Z,93.56
2016-11-30T01:39:58.484Z,93.37
2016-11-30T01:40:58.500Z,93.42
2016-11-30T01:41:58.513Z,93.18
2016-11-30T01:42:58.524Z,93.32
2016-11-30T01:43:58.536Z,93.56
2016-11-30T01:44:58.556Z,93.61
2016-11-30T01:45:58.564Z,93.13
2016-11-30T01:46:58.572Z,93.13
2016-11-30T01:47:58.589Z,93.04
2016-11-30T01:49:13.522Z,92.57
2016-11-30T01:49:58.611Z,92.47
2016-11-30T01:50:58.628Z,92.66
2016-11-30T01:51:58.639Z,92.19
2016-11-30T01:52:58.658Z,92.66
2016-11-30T01:53:58.663Z,91.63
2016-11-30T01:54:58.677Z,91.77
2016-11-30T01:55:58.689Z,92.47
2016-11-30T01:56:58.705Z,91.82
2016-11-30T01:57:58.721Z,92.14
2016-11-30T01:58:58.728Z,92.76
2016-11-30T01:59:58.749Z,92.19
2016-11-30T02:00:58.757Z,92.1
2016-11-30T02:01:58.770Z,92.1
2016-11-30T02:02:58.813Z,92.1
2016-11-30T02:03:58.799Z,91.25
2016-11-30T02:05:13.732Z,91.25
2016-11-30T02:05:58.821Z,91.06
2016-11-30T02:06:58.836Z,90.87
2016-11-30T02:07:58.850Z,90.87
2016-11-30T02:08:58.861Z,90.77
2016-11-30T02:09:58.876Z,90.96
2016-11-30T02:10:58.887Z,90.59
2016-11-30T02:11:58.903Z,90.77
2016-11-30T02:12:58.910Z,90.77
2016-11-30T02:13:58.934Z,90.77
2016-11-30T02:14:58.941Z,90.4
2016-11-30T02:15:58.954Z,90.59
2016-11-30T02:16:58.966Z,90.3
2016-11-30T02:17:58.983Z,90.11
2016-11-30T02:18:58.991Z,89.92
2016-11-30T02:19:59.005Z,89.73
2016-11-30T02:21:13.942Z,90.02
2016-11-30T02:21:59.035Z,90.11
2016-11-30T02:22:59.046Z,90.3
2016-11-30T02:23:59.058Z,90.02
2016-11-30T02:24:59.071Z,90.21
2016-11-30T02:25:59.086Z,90.3
2016-11-30T02:26:59.097Z,90.11
2016-11-30T02:27:59.110Z,89.83
2016-11-30T02:28:59.124Z,89.92
2016-11-30T02:29:59.137Z,89.92
2016-11-30T02:30:59.148Z,89.36
2016-11-30T02:31:59.168Z,89.64
2016-11-30T02:34:59.206Z,89.54
2016-11-30T02:36:14.140Z,89.54
2016-11-30T02:36:59.235Z,89.54
2016-11-30T02:37:59.246Z,89.64
2016-11-30T02:38:59.254Z,88.98
2016-11-30T02:39:59.268Z,89.17
2016-11-30T02:40:59.285Z,89.17
2016-11-30T02:41:59.297Z,88.89
2016-11-30T02:42:59.311Z,88.7
2016-11-30T02:43:59.625Z,88.6
2016-11-30T02:44:59.339Z,88.23
2016-11-30T02:45:59.348Z,88.23
2016-11-30T02:46:59.362Z,88.04
2016-11-30T02:47:59.375Z,88.13
2016-11-30T02:48:59.389Z,88.04
2016-11-30T02:49:59.406Z,88.04
2016-11-30T02:50:59.420Z,87.85
2016-11-30T02:51:59.429Z,88.04
2016-11-30T02:52:59.445Z,87.47
2016-11-30T02:53:59.460Z,87.56
2016-11-30T02:54:59.468Z,87.47
2016-11-30T02:55:59.478Z,87.18
2016-11-30T02:56:59.500Z,87.28
2016-11-30T02:57:59.556Z,87.28
2016-11-30T02:58:59.524Z,86.8
2016-11-30T02:59:59.534Z,86.52
2016-11-30T03:00:59.546Z,86.9
2016-11-30T03:01:59.564Z,85.96
2016-11-30T03:02:59.574Z,86.43
2016-11-30T03:03:59.585Z,85.77
2016-11-30T03:04:59.602Z,86.15
2016-11-30T03:05:59.621Z,86.33
2016-11-30T03:06:59.626Z,86.33
2016-11-30T03:08:14.565Z,85.68
2016-11-30T03:08:59.658Z,85.39
2016-11-30T03:09:59.673Z,84.68
2016-11-30T03:10:59.681Z,85.15
2016-11-30T03:11:59.696Z,85.05
2016-11-30T03:12:59.709Z,85.05
2016-11-30T03:13:59.720Z,84.82
2016-11-30T03:14:59.737Z,84.35
2016-11-30T03:15:59.753Z,84.73
2016-11-30T03:16:59.766Z,84.26
2016-11-30T03:17:59.775Z,84.35
2016-11-30T03:18:59.790Z,84.58
2016-11-30T03:19:59.801Z,83.69
2016-11-30T03:20:59.814Z,83.45
2016-11-30T03:22:59.840Z,83.07
2016-11-30T03:24:14.779Z,82.98
2016-11-30T03:24:59.869Z,82.5
2016-11-30T03:25:59.879Z,82.6
2016-11-30T03:26:59.895Z,82.31
2016-11-30T03:27:59.915Z,82.31
2016-11-30T03:28:59.924Z,82.12
2016-11-30T03:29:59.939Z,82.31
2016-11-30T03:30:59.951Z,81.74
2016-11-30T03:31:59.962Z,81.74
2016-11-30T03:32:59.977Z,81.74
2016-11-30T03:33:59.989Z,81.37
2016-11-30T03:35:00.004Z,80.71
2016-11-30T03:36:00.020Z,80.99
2016-11-30T03:37:00.027Z,80.62
2016-11-30T03:39:00.057Z,80.24
2016-11-30T03:40:14.993Z,79.95
2016-11-30T03:41:00.083Z,80.05
2016-11-30T03:42:05.127Z,79.76
2016-11-30T03:43:00.109Z,79.95
2016-11-30T03:44:00.123Z,79.95
2016-11-30T03:45:00.135Z,79.86
2016-11-30T03:46:00.151Z,79.86
2016-11-30T03:47:00.164Z,79.29
2016-11-30T03:48:00.177Z,78.63
2016-11-30T03:49:00.191Z,78.34
2016-11-30T03:50:00.204Z,78.81
2016-11-30T03:51:00.216Z,78.25
2016-11-30T03:52:00.229Z,77.87
2016-11-30T03:53:00.250Z,77.69
2016-11-30T03:54:00.259Z,77.97
2016-11-30T03:55:00.270Z,77.59
2016-11-30T03:56:15.208Z,77.59
2016-11-30T03:58:00.312Z,77.4
2016-11-30T03:59:00.325Z,77.21
2016-11-30T04:00:00.339Z,76.87
2016-11-30T04:01:00.354Z,76.93
2016-11-30T04:02:00.364Z,77.12
2016-11-30T04:03:00.382Z,76.93
2016-11-30T04:04:00.397Z,77.12
2016-11-30T04:05:00.414Z,77.02
2016-11-30T04:06:00.423Z,77.12
2016-11-30T04:07:00.438Z,77.25
2016-11-30T04:08:00.447Z,77.25
2016-11-30T04:10:00.483Z,76.97
2016-11-30T04:11:15.415Z,77.25
2016-11-30T04:12:00.507Z,76.87
2016-11-30T04:13:00.528Z,76.97
2016-11-30T04:14:00.535Z,77.15
2016-11-30T04:15:00.548Z,76.87
2016-11-30T04:16:00.560Z,76.5
2016-11-30T04:17:00.575Z,76.5
2016-11-30T04:18:00.590Z,77.06
2016-11-30T04:19:00.605Z,76.31
2016-11-30T04:20:00.617Z,77.06
2016-11-30T04:21:00.631Z,76.78
2016-11-30T04:22:00.645Z,77.25
2016-11-30T04:24:00.669Z,77.15
2016-11-30T04:26:00.698Z,76.21
2016-11-30T04:27:00.714Z,76.78
2016-11-30T04:28:00.721Z,76.87
2016-11-30T04:29:00.740Z,77.06
2016-11-30T04:30:00.755Z,76.97
2016-11-30T04:31:00.766Z,77.06
2016-11-30T04:32:00.783Z,76.78
2016-11-30T04:33:00.794Z,77.34
2016-11-30T04:34:00.810Z,77.15
2016-11-30T04:35:00.822Z,76.97
2016-11-30T04:36:00.837Z,76.78
2016-11-30T04:37:00.852Z,76.87
2016-11-30T04:38:00.867Z,76.97
2016-11-30T04:39:00.876Z,76.87
2016-11-30T04:40:00.888Z,76.97
2016-11-30T04:41:00.904Z,76.5
2016-11-30T04:42:00.920Z,76.4
2016-11-30T04:43:15.856Z,76.68
2016-11-30T04:46:00.974Z,77.06
2016-11-30T04:47:00.991Z,77.25
2016-11-30T04:48:01.003Z,77.25
2016-11-30T04:49:01.018Z,76.97
2016-11-30T04:50:01.030Z,77.34
2016-11-30T04:51:01.048Z,77.06
2016-11-30T04:52:01.055Z,77.06
2016-11-30T04:53:01.072Z,76.68
2016-11-30T04:55:01.101Z,76.97
2016-11-30T04:56:01.115Z,76.78
2016-11-30T04:57:01.128Z,76.78
2016-11-30T04:58:01.142Z,76.97
2016-11-30T04:59:16.077Z,76.31
2016-11-30T05:00:01.174Z,76.59
2016-11-30T05:01:01.190Z,76.31
2016-11-30T05:02:01.200Z,76.59
2016-11-30T05:03:01.215Z,76.5
2016-11-30T05:04:01.527Z,76.59
2016-11-30T05:05:01.242Z,77.06
2016-11-30T05:06:01.282Z,77.25
2016-11-30T05:07:01.271Z,77.06
2016-11-30T05:08:01.287Z,77.34
2016-11-30T05:09:01.298Z,76.78
2016-11-30T05:10:01.311Z,76.5
2016-11-30T05:11:01.327Z,76.4
2016-11-30T05:12:01.338Z,76.5
2016-11-30T05:14:01.367Z,76.68
2016-11-30T05:15:16.303Z,77.06
2016-11-30T05:16:01.397Z,77.25
2016-11-30T05:17:01.411Z,77.06
2016-11-30T05:18:01.421Z,76.87
2016-11-30T05:19:01.435Z,76.78
2016-11-30T05:20:01.455Z,77.2
2016-11-30T05:21:01.466Z,77.25
2016-11-30T05:22:01.479Z,76.91
2016-11-30T05:23:01.545Z,76.78
2016-11-30T05:24:01.504Z,77.06
2016-11-30T05:25:01.524Z,76.34
2016-11-30T05:26:01.536Z,76.59
2016-11-30T05:27:01.548Z,76.53
2016-11-30T05:28:01.568Z,76.59
2016-11-30T05:29:01.577Z,76.34
2016-11-30T05:30:01.592Z,77.2
2016-11-30T05:31:16.529Z,76.31
2016-11-30T05:33:01.640Z,75.59
2016-11-30T05:34:01.649Z,75.45
2016-11-30T05:35:01.662Z,75.74
2016-11-30T05:36:01.679Z,75.68
2016-11-30T05:37:01.695Z,75.87
2016-11-30T05:38:01.709Z,75.45
2016-11-30T05:39:01.721Z,75.49
2016-11-30T05:40:01.731Z,75.93
2016-11-30T05:41:01.755Z,75.12
2016-11-30T05:42:01.761Z,75.31
2016-11-30T05:43:01.778Z,75.12
2016-11-30T05:44:01.792Z,75.12
2016-11-30T05:45:01.808Z,75.02
2016-11-30T05:46:16.742Z,75.21
2016-11-30T05:47:01.832Z,74.64
2016-11-30T05:48:01.849Z,75.02
2016-11-30T05:49:01.860Z,74.74
2016-11-30T05:50:01.876Z,75.02
2016-11-30T05:51:01.893Z,75.4
2016-11-30T05:52:01.908Z,74.83
2016-11-30T05:53:01.922Z,74.36
2016-11-30T05:54:01.935Z,74.6
2016-11-30T05:55:01.953Z,74.64
2016-11-30T05:56:01.968Z,75.02
2016-11-30T05:57:01.978Z,74.64
2016-11-30T05:58:01.994Z,75.12
2016-11-30T05:59:02.006Z,75.02
2016-11-30T06:01:02.035Z,74.55
2016-11-30T06:02:02.052Z,74.83
2016-11-30T06:03:02.369Z,74.55
2016-11-30T06:04:02.078Z,74.55
2016-11-30T06:05:02.092Z,74.36
2016-11-30T06:06:02.107Z,74.26
2016-11-30T06:07:02.123Z,73.88
2016-11-30T06:08:02.135Z,74.45
2016-11-30T06:09:02.151Z,74.45
2016-11-30T06:10:02.165Z,74.64
2016-11-30T06:11:02.176Z,73.88
2016-11-30T06:12:02.193Z,73.98
2016-11-30T06:13:02.205Z,74.07
2016-11-30T06:14:02.223Z,73.32
2016-11-30T06:15:02.237Z,73.6
2016-11-30T06:16:02.254Z,73.5
2016-11-30T06:18:17.201Z,73.41
2016-11-30T06:19:02.290Z,73.32
2016-11-30T06:20:02.311Z,73.03
2016-11-30T06:21:02.320Z,73.32
2016-11-30T06:22:02.338Z,72.85
2016-11-30T06:23:02.347Z,72.56
2016-11-30T06:24:02.670Z,72.37
2016-11-30T06:25:02.377Z,71.52
2016-11-30T06:27:02.410Z,71.27
2016-11-30T06:28:02.425Z,71.08
2016-11-30T06:29:02.432Z,71.17
2016-11-30T06:30:02.448Z,70.61
2016-11-30T06:31:02.468Z,70.7
2016-11-30T06:32:02.482Z,70.7
2016-11-30T06:34:17.431Z,70.32
2016-11-30T06:36:02.542Z,70.61
2016-11-30T06:37:02.552Z,70.89
2016-11-30T06:38:02.564Z,70.04
2016-11-30T06:39:02.584Z,70.32
2016-11-30T06:40:02.593Z,70.32
2016-11-30T06:41:02.611Z,69.95
2016-11-30T06:42:02.625Z,69.85
2016-11-30T06:43:02.639Z,69.85
2016-11-30T06:44:02.652Z,69.85
2016-11-30T06:45:02.672Z,69.38
2016-11-30T06:46:02.688Z,69.19
2016-11-30T06:47:02.696Z,69.47
2016-11-30T06:49:02.732Z,69.19
2016-11-30T06:50:17.664Z,69.19
2016-11-30T06:51:02.756Z,69.85
2016-11-30T06:52:02.776Z,69.47
2016-11-30T06:53:02.790Z,69.28
2016-11-30T06:54:02.800Z,69.19
2016-11-30T06:55:02.813Z,69.57
2016-11-30T06:56:02.831Z,69.57
2016-11-30T06:57:02.847Z,69.47
2016-11-30T06:58:02.860Z,69.38
2016-11-30T06:59:02.878Z,69.38
2016-11-30T07:00:02.895Z,69.19
2016-11-30T07:01:02.908Z,69.28
2016-11-30T07:03:02.937Z,69.19
2016-11-30T07:04:02.951Z,69.38
2016-11-30T07:05:03.265Z,69.38
2016-11-30T07:06:17.899Z,69.09
2016-11-30T07:07:02.993Z,69.38
2016-11-30T07:08:03.006Z,68.81
2016-11-30T07:09:03.019Z,69.66
2016-11-30T07:10:03.042Z,69.19
2016-11-30T07:11:03.049Z,69.57
2016-11-30T07:12:03.064Z,68.9
2016-11-30T07:13:03.083Z,68.81
2016-11-30T07:14:03.099Z,68.9
2016-11-30T07:15:03.110Z,68.71
2016-11-30T07:16:03.126Z,68.81
2016-11-30T07:17:03.173Z,68.81
2016-11-30T07:18:03.153Z,69.28
2016-11-30T07:19:03.176Z,68.71
2016-11-30T07:20:03.186Z,68.81
2016-11-30T07:21:18.124Z,68.81
2016-11-30T07:24:03.246Z,69.19
2016-11-30T07:25:03.599Z,69.28
2016-11-30T07:26:03.282Z,69.28
2016-11-30T07:27:03.340Z,68.62
2016-11-30T07:28:03.305Z,68.71
2016-11-30T07:29:03.320Z,68.62
2016-11-30T07:30:03.335Z,68.81
2016-11-30T07:31:03.351Z,68.62
2016-11-30T07:32:03.367Z,68.52
2016-11-30T07:33:03.382Z,68.24
2016-11-30T07:34:03.392Z,68.52
2016-11-30T07:35:03.411Z,69.09
2016-11-30T07:36:03.423Z,68.9
2016-11-30T07:37:03.445Z,68.62
2016-11-30T07:38:03.454Z,68.52
2016-11-30T07:39:03.470Z,69.47
2016-11-30T07:40:03.489Z,69.28
2016-11-30T07:41:03.504Z,69.57
2016-11-30T07:42:03.518Z,69.38
2016-11-30T07:43:03.533Z,69.19
2016-11-30T07:44:03.576Z,69.47
2016-11-30T07:45:03.559Z,69.09
2016-11-30T07:46:03.577Z,69
2016-11-30T07:47:03.594Z,69.38
2016-11-30T07:48:03.608Z,69.22
2016-11-30T07:49:03.631Z,69.32
2016-11-30T07:50:03.637Z,69.19
2016-11-30T07:51:03.653Z,68.9
2016-11-30T07:53:18.604Z,69.19
2016-11-30T07:55:03.714Z,68.62
2016-11-30T07:56:03.731Z,68.9
2016-11-30T07:57:03.740Z,68.84
2016-11-30T07:58:03.756Z,69.13
2016-11-30T07:59:03.777Z,69.22
2016-11-30T08:00:03.785Z,69.32
2016-11-30T08:01:04.109Z,69.22
2016-11-30T08:02:03.818Z,69.6
2016-11-30T08:03:03.833Z,69.41
2016-11-30T08:04:03.850Z,69.22
2016-11-30T08:05:03.871Z,69.51
2016-11-30T08:06:03.878Z,69.51
2016-11-30T08:07:03.899Z,69.7
2016-11-30T08:08:03.908Z,69.32
2016-11-30T08:09:18.848Z,68.75
2016-11-30T08:10:03.945Z,69.51
2016-11-30T08:11:03.958Z,69.32
2016-11-30T08:12:03.971Z,69.79
2016-11-30T08:13:03.984Z,69.22
2016-11-30T08:14:04.001Z,69.41
2016-11-30T08:15:04.020Z,69.41
2016-11-30T08:16:04.040Z,69.51
2016-11-30T08:17:04.052Z,69.41
2016-11-30T08:18:04.060Z,69.7
2016-11-30T08:19:04.082Z,69.51
2016-11-30T08:20:04.100Z,69.7
2016-11-30T08:21:04.109Z,69.98
2016-11-30T08:22:04.124Z,69.98
2016-11-30T08:23:04.138Z,69.51
2016-11-30T08:24:04.158Z,69.89
2016-11-30T08:25:19.091Z,69.51
2016-11-30T08:26:04.184Z,69.6
2016-11-30T08:27:04.203Z,69.79
2016-11-30T08:28:04.213Z,69.51
2016-11-30T08:29:04.230Z,69.32
2016-11-30T08:30:04.299Z,69.32
2016-11-30T08:31:04.260Z,69.79
2016-11-30T08:32:04.275Z,69.89
2016-11-30T08:33:04.294Z,69.6
2016-11-30T08:34:04.311Z,69.51
2016-11-30T08:35:04.623Z,69.6
2016-11-30T08:36:04.340Z,69.6
2016-11-30T08:37:04.359Z,69.6
2016-11-30T08:40:04.408Z,70.55
2016-11-30T08:41:19.338Z,70.83
2016-11-30T08:42:04.433Z,71.12
2016-11-30T08:43:04.454Z,71.69
2016-11-30T08:44:04.463Z,72.25
2016-11-30T08:45:04.481Z,72.63
2016-11-30T08:46:04.494Z,73.2
2016-11-30T08:47:04.813Z,73.86
2016-11-30T08:48:04.524Z,74.33
2016-11-30T08:49:04.544Z,74.9
2016-11-30T08:50:04.557Z,75.09
2016-11-30T08:51:04.575Z,75.66
2016-11-30T08:52:04.589Z,76.23
2016-11-30T08:53:04.609Z,76.32
2016-11-30T08:54:04.623Z,76.99
2016-11-30T08:55:04.635Z,77.18
2016-11-30T08:56:19.575Z,77.46
2016-11-30T08:57:04.668Z,77.18
2016-11-30T08:58:04.680Z,77.46
2016-11-30T08:59:04.701Z,78.03
2016-11-30T09:00:04.712Z,78.69
2016-11-30T09:01:04.737Z,78.31
2016-11-30T09:02:04.744Z,78.79
2016-11-30T09:03:04.761Z,78.5
2016-11-30T09:04:04.785Z,78.79
2016-11-30T09:05:04.791Z,77.94
2016-11-30T09:06:04.811Z,78.22
2016-11-30T09:07:04.826Z,78.03
2016-11-30T09:08:04.841Z,78.03
2016-11-30T09:10:04.924Z,77.56
2016-11-30T09:11:04.887Z,77.18
2016-11-30T09:12:04.903Z,77.84
2016-11-30T09:13:04.917Z,78.22
2016-11-30T09:14:04.940Z,77.56
2016-11-30T09:15:04.949Z,77.75
2016-11-30T09:16:04.969Z,77.94
2016-11-30T09:17:04.984Z,77.75
2016-11-30T09:18:04.999Z,77.84
2016-11-30T09:19:05.009Z,77.65
2016-11-30T09:20:05.030Z,77.84
2016-11-30T09:21:05.041Z,77.94
2016-11-30T09:22:05.061Z,77.84
2016-11-30T09:23:05.076Z,78.13
2016-11-30T09:24:05.090Z,77.94
2016-11-30T09:27:05.140Z,78.03
2016-11-30T09:28:20.077Z,78.31
2016-11-30T09:29:05.172Z,78.31
2016-11-30T09:30:05.187Z,78.69
2016-11-30T09:31:05.198Z,78.88
2016-11-30T09:32:05.219Z,79.55
2016-11-30T09:33:05.236Z,79.17
2016-11-30T09:34:05.254Z,79.07
2016-11-30T09:35:05.266Z,79.39
2016-11-30T09:36:05.279Z,79.3
2016-11-30T09:37:05.296Z,79.36
2016-11-30T09:38:05.316Z,79.36
2016-11-30T09:39:05.325Z,79.74
2016-11-30T09:40:05.347Z,79.83
2016-11-30T09:41:05.357Z,79.93
2016-11-30T09:42:05.374Z,80.3
2016-11-30T09:44:20.331Z,80.3
2016-11-30T09:45:05.423Z,80.4
2016-11-30T09:46:05.439Z,80.87
2016-11-30T09:47:05.452Z,80.77
2016-11-30T09:48:05.474Z,80.3
2016-11-30T09:49:05.486Z,80.4
2016-11-30T09:50:05.501Z,81.29
2016-11-30T09:51:05.522Z,82.2
2016-11-30T09:52:05.534Z,82.76
2016-11-30T09:53:05.549Z,83.52
2016-11-30T09:54:05.596Z,84.38
2016-11-30T09:55:05.582Z,84.75
2016-11-30T09:57:05.610Z,85.42
2016-11-30T09:58:05.630Z,84.66
2016-11-30T09:59:05.646Z,85.51
2016-11-30T10:00:20.581Z,85.13
2016-11-30T10:01:05.679Z,85.42
2016-11-30T10:02:05.693Z,85.42
2016-11-30T10:03:05.712Z,84.94
2016-11-30T10:04:05.725Z,84.66
2016-11-30T10:05:06.046Z,85.04
2016-11-30T10:06:05.755Z,84.94
2016-11-30T10:07:05.780Z,84.85
2016-11-30T10:08:05.792Z,84.47
2016-11-30T10:09:05.810Z,84.09
2016-11-30T10:10:05.823Z,84.04
2016-11-30T10:11:05.833Z,83.28
2016-11-30T10:12:05.850Z,83.37
2016-11-30T10:15:05.896Z,83.18
2016-11-30T10:16:20.839Z,82.9
2016-11-30T10:17:05.932Z,83
2016-11-30T10:18:05.945Z,82.62
2016-11-30T10:20:05.983Z,82.14
2016-11-30T10:21:05.998Z,81.95
2016-11-30T10:22:06.013Z,81.48
2016-11-30T10:23:06.027Z,81.95
2016-11-30T10:24:06.047Z,81.57
2016-11-30T10:25:06.368Z,81.76
2016-11-30T10:26:06.077Z,81.2
2016-11-30T10:27:06.094Z,81.2
2016-11-30T10:28:06.111Z,80.34
2016-11-30T10:29:06.128Z,80.34
2016-11-30T10:30:06.143Z,80.44
2016-11-30T10:31:21.081Z,80.44
2016-11-30T10:32:06.177Z,80.34
2016-11-30T10:34:06.206Z,80.86
2016-11-30T10:35:06.276Z,80.57
2016-11-30T10:36:06.240Z,80.48
2016-11-30T10:37:06.306Z,80.38
2016-11-30T10:38:06.273Z,80.76
2016-11-30T10:39:06.291Z,80.48
2016-11-30T10:40:06.308Z,80.91
2016-11-30T10:41:06.327Z,81.14
2016-11-30T10:42:06.340Z,81.57
2016-11-30T10:43:06.360Z,81.76
2016-11-30T10:44:06.375Z,81.95
2016-11-30T10:45:06.390Z,82.33
2016-11-30T10:46:06.407Z,81.86
2016-11-30T10:47:06.426Z,82.62
2016-11-30T10:49:06.460Z,82.81
2016-11-30T10:50:06.474Z,83.18
2016-11-30T10:51:06.491Z,82.52
2016-11-30T10:52:06.508Z,82.62
2016-11-30T10:53:06.528Z,83.23
2016-11-30T10:54:06.541Z,83.13
2016-11-30T10:55:06.556Z,83.32
2016-11-30T10:56:06.576Z,83.23
2016-11-30T10:57:06.588Z,83.42
2016-11-30T10:58:06.655Z,83.42
2016-11-30T10:59:06.622Z,83.61
2016-11-30T11:00:06.692Z,83.7
2016-11-30T11:01:06.659Z,83.42
2016-11-30T11:02:06.723Z,83.23
2016-11-30T11:03:21.612Z,83.51
2016-11-30T11:04:06.707Z,83.32
2016-11-30T11:05:06.724Z,83.8
2016-11-30T11:06:06.738Z,83.89
2016-11-30T11:07:06.758Z,83.61
2016-11-30T11:08:06.773Z,83.32
2016-11-30T11:09:07.105Z,83.32
2016-11-30T11:10:06.807Z,83.89
2016-11-30T11:11:07.128Z,83.8
2016-11-30T11:12:06.837Z,83.51
2016-11-30T11:13:06.852Z,83.51
2016-11-30T11:14:06.870Z,84.27
2016-11-30T11:15:06.940Z,83.98
2016-11-30T11:16:06.908Z,83.98
2016-11-30T11:17:06.926Z,84.08
2016-11-30T11:18:06.939Z,83.98
2016-11-30T11:19:21.877Z,83.8
2016-11-30T11:20:06.974Z,84.08
2016-11-30T11:21:07.041Z,84.08
2016-11-30T11:22:07.002Z,83.61
2016-11-30T11:23:07.027Z,83.98
2016-11-30T11:24:07.042Z,84.08
2016-11-30T11:25:07.066Z,84.08
2016-11-30T11:26:07.072Z,83.98
2016-11-30T11:27:07.090Z,84.08
2016-11-30T11:28:07.107Z,83.98
2016-11-30T11:29:07.122Z,84.55
2016-11-30T11:30:07.188Z,84.74
2016-11-30T11:31:07.161Z,84.27
2016-11-30T11:32:07.175Z,84.55
2016-11-30T11:33:07.189Z,84.46
2016-11-30T11:34:07.205Z,85.6
2016-11-30T11:35:22.147Z,85.22
2016-11-30T11:37:07.257Z,85.03
2016-11-30T11:38:07.276Z,85.31
2016-11-30T11:39:07.289Z,85.41
2016-11-30T11:40:07.309Z,85.22
2016-11-30T11:41:07.321Z,85.41
2016-11-30T11:42:07.338Z,85.69
2016-11-30T11:43:07.363Z,84.84
2016-11-30T11:44:07.378Z,85.31
2016-11-30T11:45:07.395Z,85.78
2016-11-30T11:46:07.405Z,85.41
2016-11-30T11:47:07.425Z,85.13
2016-11-30T11:48:07.442Z,85.22
2016-11-30T11:49:07.559Z,85.03
2016-11-30T11:50:07.580Z,85.03
2016-11-30T11:51:22.415Z,85.22
2016-11-30T11:53:07.529Z,85.6
2016-11-30T11:54:07.544Z,85.5
2016-11-30T11:55:07.559Z,85.41
2016-11-30T11:56:07.581Z,86.16
2016-11-30T11:57:07.596Z,85.69
2016-11-30T11:58:07.612Z,85.5
2016-11-30T11:59:07.629Z,85.5
2016-11-30T12:00:07.647Z,85.6
2016-11-30T12:01:07.664Z,85.41
2016-11-30T12:02:07.681Z,85.41
2016-11-30T12:03:07.700Z,85.78
2016-11-30T12:04:07.712Z,85.78
2016-11-30T12:05:07.734Z,86.16
2016-11-30T12:06:22.673Z,86.07
2016-11-30T12:07:07.769Z,86.35
2016-11-30T12:08:07.783Z,86.26
2016-11-30T12:09:07.799Z,86.35
2016-11-30T12:10:07.865Z,86.26
2016-11-30T12:11:07.836Z,86.35
2016-11-30T12:12:07.854Z,86.35
2016-11-30T12:13:07.871Z,86.16
2016-11-30T12:14:07.888Z,86.55
2016-11-30T12:15:07.901Z,86.16
2016-11-30T12:16:07.923Z,86.16
2016-11-30T12:17:07.938Z,86.35
2016-11-30T12:18:07.951Z,86.11
2016-11-30T12:19:07.971Z,86.07
2016-11-30T12:20:07.987Z,86.11
2016-11-30T12:21:08.006Z,86.07
2016-11-30T12:22:08.025Z,86.21
2016-11-30T12:23:08.038Z,85.83
2016-11-30T12:25:08.071Z,86.35
2016-11-30T12:26:08.089Z,86.45
2016-11-30T12:27:08.106Z,86.16
2016-11-30T12:28:08.121Z,86.26
2016-11-30T12:29:08.141Z,86.55
2016-11-30T12:30:08.157Z,86.35
2016-11-30T12:31:08.175Z,86.45
2016-11-30T12:32:08.194Z,86.07
2016-11-30T12:33:08.208Z,86.07
2016-11-30T12:34:08.224Z,86.45
2016-11-30T12:35:08.242Z,86.45
2016-11-30T12:36:08.259Z,86.49
2016-11-30T12:37:08.275Z,86.64
2016-11-30T12:38:23.217Z,87.21
2016-11-30T12:39:08.316Z,86.55
2016-11-30T12:40:08.334Z,86.93
2016-11-30T12:41:08.680Z,87.3
2016-11-30T12:42:08.365Z,86.83
2016-11-30T12:43:08.381Z,87.25
2016-11-30T12:44:08.396Z,87.21
2016-11-30T12:45:08.417Z,87.16
2016-11-30T12:46:08.430Z,87.4
2016-11-30T12:47:08.760Z,87.45
2016-11-30T12:48:08.469Z,87.87
2016-11-30T12:49:08.482Z,87.77
2016-11-30T12:51:08.518Z,88.54
2016-11-30T12:53:08.562Z,88.16
2016-11-30T12:54:23.493Z,88.35
2016-11-30T12:55:08.589Z,89.11
2016-11-30T12:56:08.603Z,89.01
2016-11-30T12:57:08.619Z,89.01
2016-11-30T12:58:08.635Z,89.39
2016-11-30T12:59:08.663Z,89.86
2016-11-30T13:00:08.725Z,89.77
2016-11-30T13:01:08.742Z,89.86
2016-11-30T13:02:08.705Z,89.67
2016-11-30T13:03:08.776Z,90.15
2016-11-30T13:04:08.737Z,90.34
2016-11-30T13:05:08.757Z,90.81
2016-11-30T13:06:08.776Z,91.38
2016-11-30T13:07:08.794Z,91.28
2016-11-30T13:08:08.807Z,91.47
2016-11-30T13:09:08.829Z,91.76
2016-11-30T13:10:23.765Z,91.85
2016-11-30T13:11:08.862Z,92.42
2016-11-30T13:12:08.881Z,92.33
2016-11-30T13:13:08.892Z,92.9
2016-11-30T13:14:08.910Z,93.46
2016-11-30T13:15:08.932Z,93.75
2016-11-30T13:16:08.943Z,93.56
2016-11-30T13:17:08.965Z,94.7
2016-11-30T13:18:08.980Z,95.36
2016-11-30T13:19:08.995Z,95.55
2016-11-30T13:20:09.014Z,95.74
2016-11-30T13:22:09.047Z,96.31
2016-11-30T13:23:09.062Z,97.26
2016-11-30T13:24:09.084Z,97.16
2016-11-30T13:26:24.035Z,97.92
2016-11-30T13:27:09.131Z,97.83
2016-11-30T13:28:09.145Z,98.39
2016-11-30T13:29:09.171Z,98.49
2016-11-30T13:30:09.187Z,98.96
2016-11-30T13:31:09.201Z,99.06
2016-11-30T13:32:09.217Z,98.96
2016-11-30T13:33:09.231Z,98.87
2016-11-30T13:34:09.251Z,99.53
2016-11-30T13:35:09.268Z,99.53
2016-11-30T13:36:09.287Z,99.99
2016-11-30T13:37:09.297Z,99.82
2016-11-30T13:38:09.318Z,99.99
2016-11-30T13:39:09.335Z,99.99
2016-11-30T13:40:09.353Z,99.99
2016-11-30T13:41:24.292Z,99.99
2016-11-30T13:42:09.388Z,99.99
2016-11-30T13:44:09.455Z,99.99
2016-11-30T13:45:09.432Z,99.99
2016-11-30T13:46:09.453Z,99.99
2016-11-30T13:47:09.469Z,99.99